sensor_id;sensor_type;location;lat;lon;timestamp;pressure;altitude;pressure_sealevel;temperature;humidity
72423;BME280;60413;55.658;37.498;2023-02-28T00:01:41;99353.19;;;-7.76;100.00
72423;BME280;60413;55.658;37.498;2023-02-28T00:04:07;99351.53;;;-7.77;100.00
72423;BME280;60413;55.658;37.498;2023-02-28T00:06:34;99365.16;;;-7.66;100.00
72423;BME280;60413;55.658;37.498;2023-02-28T00:09:00;99310.22;;;-7.95;100.00
72423;BME280;60413;55.658;37.498;2023-02-28T00:11:26;99372.81;;;-7.66;100.00
72423;BME280;60413;55.658;37.498;2023-02-28T00:13:52;99327.59;;;-7.76;100.00
72423;BME280;60413;55.658;37.498;2023-02-28T00:16:22;99349.91;;;-7.78;100.00
72423;BME280;60413;55.658;37.498;2023-02-28T00:18:48;99347.69;;;-7.72;100.00
72423;BME280;60413;55.658;37.498;2023-02-28T00:21:20;99264.97;;;-8.40;100.00
72423;BME280;60413;55.658;37.498;2023-02-28T00:23:49;99247.09;;;-8.40;100.00
72423;BME280;60413;55.658;37.498;2023-02-28T00:26:15;99310.00;;;-8.15;100.00
72423;BME280;60413;55.658;37.498;2023-02-28T00:28:48;99306.81;;;-8.19;100.00
72423;BME280;60413;55.658;37.498;2023-02-28T00:31:14;99324.06;;;-8.09;100.00
72423;BME280;60413;55.658;37.498;2023-02-28T00:33:40;99304.19;;;-8.06;100.00
72423;BME280;60413;55.658;37.498;2023-02-28T00:36:12;99242.22;;;-8.43;100.00
72423;BME280;60413;55.658;37.498;2023-02-28T00:38:49;99250.88;;;-8.57;100.00
72423;BME280;60413;55.658;37.498;2023-02-28T00:41:26;99249.38;;;-8.60;100.00
72423;BME280;60413;55.658;37.498;2023-02-28T00:43:52;99278.66;;;-8.52;100.00
72423;BME280;60413;55.658;37.498;2023-02-28T00:46:18;99347.75;;;-8.07;100.00
72423;BME280;60413;55.658;37.498;2023-02-28T00:48:44;99277.75;;;-8.40;100.00
72423;BME280;60413;55.658;37.498;2023-02-28T00:51:13;99226.53;;;-8.85;100.00
72423;BME280;60413;55.658;37.498;2023-02-28T00:53:41;99319.25;;;-8.36;100.00
72423;BME280;60413;55.658;37.498;2023-02-28T00:56:10;99294.59;;;-8.49;100.00
72423;BME280;60413;55.658;37.498;2023-02-28T00:58:39;99279.25;;;-8.49;100.00
72423;BME280;60413;55.658;37.498;2023-02-28T01:01:19;99252.09;;;-8.50;100.00
72423;BME280;60413;55.658;37.498;2023-02-28T01:03:45;99227.16;;;-8.82;100.00
72423;BME280;60413;55.658;37.498;2023-02-28T01:06:11;99282.97;;;-8.30;100.00
72423;BME280;60413;55.658;37.498;2023-02-28T01:08:40;99266.84;;;-8.31;100.00
72423;BME280;60413;55.658;37.498;2023-02-28T01:11:08;99271.59;;;-8.38;100.00
72423;BME280;60413;55.658;37.498;2023-02-28T01:13:35;99201.78;;;-8.49;100.00
72423;BME280;60413;55.658;37.498;2023-02-28T01:16:02;99216.53;;;-8.53;100.00
72423;BME280;60413;55.658;37.498;2023-02-28T01:18:28;99205.25;;;-8.62;100.00
72423;BME280;60413;55.658;37.498;2023-02-28T01:20:54;99261.84;;;-7.98;100.00
72423;BME280;60413;55.658;37.498;2023-02-28T01:23:22;99283.84;;;-7.96;100.00
72423;BME280;60413;55.658;37.498;2023-02-28T01:25:50;99190.50;;;-8.58;100.00
72423;BME280;60413;55.658;37.498;2023-02-28T01:28:18;99232.22;;;-8.46;100.00
72423;BME280;60413;55.658;37.498;2023-02-28T01:30:48;99215.59;;;-8.52;100.00
72423;BME280;60413;55.658;37.498;2023-02-28T01:33:14;99207.00;;;-8.51;100.00
72423;BME280;60413;55.658;37.498;2023-02-28T01:35:44;99265.69;;;-8.15;100.00
72423;BME280;60413;55.658;37.498;2023-02-28T01:38:10;99265.78;;;-8.17;100.00
72423;BME280;60413;55.658;37.498;2023-02-28T01:40:37;99219.44;;;-8.12;100.00
72423;BME280;60413;55.658;37.498;2023-02-28T01:43:20;99208.28;;;-8.23;100.00
72423;BME280;60413;55.658;37.498;2023-02-28T01:45:46;99149.03;;;-8.62;100.00
72423;BME280;60413;55.658;37.498;2023-02-28T01:48:15;99154.94;;;-8.61;100.00
72423;BME280;60413;55.658;37.498;2023-02-28T01:50:49;99221.31;;;-8.03;100.00
72423;BME280;60413;55.658;37.498;2023-02-28T01:53:21;99220.47;;;-7.81;100.00
72423;BME280;60413;55.658;37.498;2023-02-28T01:55:50;99112.44;;;-8.51;100.00
72423;BME280;60413;55.658;37.498;2023-02-28T01:58:20;99224.44;;;-7.99;100.00
72423;BME280;60413;55.658;37.498;2023-02-28T02:00:46;99192.72;;;-8.20;100.00
72423;BME280;60413;55.658;37.498;2023-02-28T02:03:15;99137.88;;;-8.61;100.00
72423;BME280;60413;55.658;37.498;2023-02-28T02:05:45;99160.97;;;-8.40;100.00
72423;BME280;60413;55.658;37.498;2023-02-28T02:08:20;99159.13;;;-8.26;100.00
72423;BME280;60413;55.658;37.498;2023-02-28T02:11:00;99158.78;;;-8.44;100.00
72423;BME280;60413;55.658;37.498;2023-02-28T02:13:50;99197.38;;;-8.13;100.00
72423;BME280;60413;55.658;37.498;2023-02-28T02:22:27;99178.16;;;-8.19;100.00
72423;BME280;60413;55.658;37.498;2023-02-28T02:36:39;99159.88;;;-7.92;100.00
72423;BME280;60413;55.658;37.498;2023-02-28T02:41:53;99123.44;;;-8.39;100.00
72423;BME280;60413;55.658;37.498;2023-02-28T02:44:36;99173.50;;;-8.25;100.00
72423;BME280;60413;55.658;37.498;2023-02-28T02:47:09;99160.25;;;-8.30;100.00
72423;BME280;60413;55.658;37.498;2023-02-28T02:49:38;99154.22;;;-8.07;100.00
72423;BME280;60413;55.658;37.498;2023-02-28T02:52:08;99124.25;;;-8.16;100.00
72423;BME280;60413;55.658;37.498;2023-02-28T02:54:38;99153.28;;;-8.06;100.00
72423;BME280;60413;55.658;37.498;2023-02-28T02:57:28;99145.16;;;-8.11;100.00
72423;BME280;60413;55.658;37.498;2023-02-28T02:59:56;99136.97;;;-7.82;100.00
72423;BME280;60413;55.658;37.498;2023-02-28T03:02:23;99124.16;;;-7.82;100.00
72423;BME280;60413;55.658;37.498;2023-02-28T03:04:52;99115.78;;;-7.73;100.00
72423;BME280;60413;55.658;37.498;2023-02-28T03:07:20;99087.75;;;-8.18;100.00
72423;BME280;60413;55.658;37.498;2023-02-28T03:09:52;99113.78;;;-8.13;100.00
72423;BME280;60413;55.658;37.498;2023-02-28T03:12:18;99094.25;;;-8.25;100.00
72423;BME280;60413;55.658;37.498;2023-02-28T03:14:56;99100.97;;;-8.02;100.00
72423;BME280;60413;55.658;37.498;2023-02-28T03:20:38;99068.53;;;-8.45;100.00
72423;BME280;60413;55.658;37.498;2023-02-28T03:23:15;99098.34;;;-8.34;100.00
72423;BME280;60413;55.658;37.498;2023-02-28T03:28:47;99104.38;;;-8.24;100.00
72423;BME280;60413;55.658;37.498;2023-02-28T03:31:21;99083.00;;;-8.34;100.00
72423;BME280;60413;55.658;37.498;2023-02-28T03:33:56;99075.25;;;-8.44;100.00
72423;BME280;60413;55.658;37.498;2023-02-28T03:36:30;99051.94;;;-8.62;100.00
72423;BME280;60413;55.658;37.498;2023-02-28T03:39:04;99047.19;;;-8.23;100.00
72423;BME280;60413;55.658;37.498;2023-02-28T03:41:59;99055.44;;;-8.30;100.00
72423;BME280;60413;55.658;37.498;2023-02-28T03:44:35;99054.44;;;-8.39;100.00
72423;BME280;60413;55.658;37.498;2023-02-28T03:47:19;99038.44;;;-8.52;100.00
72423;BME280;60413;55.658;37.498;2023-02-28T03:49:53;99051.69;;;-8.47;100.00
72423;BME280;60413;55.658;37.498;2023-02-28T03:52:21;99036.13;;;-8.44;100.00
72423;BME280;60413;55.658;37.498;2023-02-28T03:54:56;98989.16;;;-8.98;100.00
72423;BME280;60413;55.658;37.498;2023-02-28T04:00:19;98995.63;;;-8.71;100.00
72423;BME280;60413;55.658;37.498;2023-02-28T04:02:46;98993.31;;;-8.42;100.00
72423;BME280;60413;55.658;37.498;2023-02-28T04:05:12;98987.56;;;-8.55;100.00
72423;BME280;60413;55.658;37.498;2023-02-28T04:07:38;98942.50;;;-9.00;100.00
72423;BME280;60413;55.658;37.498;2023-02-28T04:10:07;98994.22;;;-8.76;100.00
72423;BME280;60413;55.658;37.498;2023-02-28T04:12:34;98924.84;;;-9.15;100.00
72423;BME280;60413;55.658;37.498;2023-02-28T04:15:01;98956.00;;;-8.54;100.00
72423;BME280;60413;55.658;37.498;2023-02-28T04:17:27;98929.00;;;-8.80;100.00
72423;BME280;60413;55.658;37.498;2023-02-28T04:19:56;99010.09;;;-8.17;100.00
72423;BME280;60413;55.658;37.498;2023-02-28T04:22:32;98901.59;;;-8.89;100.00
72423;BME280;60413;55.658;37.498;2023-02-28T04:24:58;98992.19;;;-8.17;100.00
72423;BME280;60413;55.658;37.498;2023-02-28T04:27:29;98895.91;;;-8.81;100.00
72423;BME280;60413;55.658;37.498;2023-02-28T04:29:58;98921.78;;;-8.74;100.00
72423;BME280;60413;55.658;37.498;2023-02-28T04:32:24;98996.16;;;-8.13;100.00
72423;BME280;60413;55.658;37.498;2023-02-28T04:34:56;99006.03;;;-7.87;100.00
72423;BME280;60413;55.658;37.498;2023-02-28T04:37:26;98928.16;;;-8.15;100.00
72423;BME280;60413;55.658;37.498;2023-02-28T04:39:58;98975.84;;;-7.51;100.00
72423;BME280;60413;55.658;37.498;2023-02-28T04:42:32;98942.75;;;-7.12;100.00
72423;BME280;60413;55.658;37.498;2023-02-28T04:45:04;98985.84;;;-6.17;100.00
72423;BME280;60413;55.658;37.498;2023-02-28T04:50:39;98908.75;;;-6.05;100.00
72423;BME280;60413;55.658;37.498;2023-02-28T04:53:05;98885.03;;;-6.46;100.00
72423;BME280;60413;55.658;37.498;2023-02-28T04:55:31;98951.66;;;-6.56;100.00
72423;BME280;60413;55.658;37.498;2023-02-28T04:58:03;98958.41;;;-6.55;100.00
72423;BME280;60413;55.658;37.498;2023-02-28T05:00:31;98890.84;;;-7.14;100.00
72423;BME280;60413;55.658;37.498;2023-02-28T05:03:00;98888.16;;;-7.43;100.00
72423;BME280;60413;55.658;37.498;2023-02-28T05:05:52;98956.00;;;-6.97;100.00
72423;BME280;60413;55.658;37.498;2023-02-28T05:08:21;98875.06;;;-7.50;100.00
72423;BME280;60413;55.658;37.498;2023-02-28T05:10:51;98860.25;;;-7.56;100.00
72423;BME280;60413;55.658;37.498;2023-02-28T05:13:17;98939.75;;;-6.77;100.00
72423;BME280;60413;55.658;37.498;2023-02-28T05:15:47;98873.28;;;-7.29;100.00
72423;BME280;60413;55.658;37.498;2023-02-28T05:18:40;98855.59;;;-7.41;100.00
72423;BME280;60413;55.658;37.498;2023-02-28T05:21:38;98844.75;;;-7.14;100.00
72423;BME280;60413;55.658;37.498;2023-02-28T05:26:55;98835.59;;;-6.97;100.00
72423;BME280;60413;55.658;37.498;2023-02-28T05:29:45;98815.50;;;-7.02;100.00
72423;BME280;60413;55.658;37.498;2023-02-28T05:32:20;98804.84;;;-7.17;100.00
72423;BME280;60413;55.658;37.498;2023-02-28T05:35:02;98790.59;;;-7.00;100.00
72423;BME280;60413;55.658;37.498;2023-02-28T05:37:33;98833.81;;;-6.09;100.00
72423;BME280;60413;55.658;37.498;2023-02-28T05:40:13;98880.06;;;-4.16;100.00
72423;BME280;60413;55.658;37.498;2023-02-28T05:42:50;98839.34;;;-3.34;100.00
72423;BME280;60413;55.658;37.498;2023-02-28T05:46:04;98817.72;;;-2.49;100.00
72423;BME280;60413;55.658;37.498;2023-02-28T05:48:35;98777.41;;;-1.70;100.00
72423;BME280;60413;55.658;37.498;2023-02-28T05:51:14;98806.16;;;-0.79;100.00
72423;BME280;60413;55.658;37.498;2023-02-28T05:53:45;98796.03;;;-0.27;100.00
72423;BME280;60413;55.658;37.498;2023-02-28T05:56:19;98747.06;;;-0.67;100.00
72423;BME280;60413;55.658;37.498;2023-02-28T05:58:47;98770.00;;;0.04;100.00
72423;BME280;60413;55.658;37.498;2023-02-28T06:01:41;98768.19;;;-0.25;100.00
72423;BME280;60413;55.658;37.498;2023-02-28T06:04:23;98828.69;;;0.57;100.00
72423;BME280;60413;55.658;37.498;2023-02-28T06:10:25;98742.75;;;0.60;100.00
72423;BME280;60413;55.658;37.498;2023-02-28T06:13:33;98795.81;;;0.57;100.00
72423;BME280;60413;55.658;37.498;2023-02-28T06:16:23;98763.00;;;0.86;100.00
72423;BME280;60413;55.658;37.498;2023-02-28T06:19:42;98746.41;;;1.52;100.00
72423;BME280;60413;55.658;37.498;2023-02-28T06:22:48;98712.25;;;1.26;100.00
72423;BME280;60413;55.658;37.498;2023-02-28T06:25:45;98696.75;;;2.03;100.00
72423;BME280;60413;55.658;37.498;2023-02-28T06:28:37;98762.59;;;2.65;100.00
72423;BME280;60413;55.658;37.498;2023-02-28T06:31:12;98704.81;;;1.45;100.00
72423;BME280;60413;55.658;37.498;2023-02-28T06:33:40;98713.91;;;0.84;100.00
72423;BME280;60413;55.658;37.498;2023-02-28T06:36:21;98697.81;;;-0.29;100.00
72423;BME280;60413;55.658;37.498;2023-02-28T06:38:51;98659.72;;;-1.26;100.00
72423;BME280;60413;55.658;37.498;2023-02-28T06:41:26;98647.81;;;-1.58;100.00
72423;BME280;60413;55.658;37.498;2023-02-28T06:43:55;98688.28;;;-1.74;100.00
72423;BME280;60413;55.658;37.498;2023-02-28T06:46:21;98698.16;;;-2.17;100.00
72423;BME280;60413;55.658;37.498;2023-02-28T06:48:47;98691.78;;;-2.54;100.00
72423;BME280;60413;55.658;37.498;2023-02-28T06:51:17;98744.97;;;-2.45;100.00
72423;BME280;60413;55.658;37.498;2023-02-28T06:53:50;98669.09;;;-2.91;100.00
72423;BME280;60413;55.658;37.498;2023-02-28T06:56:22;98651.19;;;-3.59;100.00
72423;BME280;60413;55.658;37.498;2023-02-28T07:01:19;98638.28;;;-3.67;100.00
72423;BME280;60413;55.658;37.498;2023-02-28T07:03:46;98639.28;;;-3.51;100.00
72423;BME280;60413;55.658;37.498;2023-02-28T07:06:21;98612.72;;;-3.52;100.00
72423;BME280;60413;55.658;37.498;2023-02-28T07:08:49;98618.66;;;-3.51;100.00
72423;BME280;60413;55.658;37.498;2023-02-28T07:11:16;98567.13;;;-3.76;100.00
72423;BME280;60413;55.658;37.498;2023-02-28T07:13:52;98579.69;;;-3.81;100.00
72423;BME280;60413;55.658;37.498;2023-02-28T07:16:19;98576.59;;;-3.93;100.00
72423;BME280;60413;55.658;37.498;2023-02-28T07:18:48;98560.84;;;-3.90;100.00
72423;BME280;60413;55.658;37.498;2023-02-28T07:21:20;98599.34;;;-3.39;100.00
72423;BME280;60413;55.658;37.498;2023-02-28T07:23:55;98662.16;;;-2.99;100.00
72423;BME280;60413;55.658;37.498;2023-02-28T07:26:24;98595.81;;;-3.13;100.00
72423;BME280;60413;55.658;37.498;2023-02-28T07:28:58;98541.06;;;-3.40;100.00
72423;BME280;60413;55.658;37.498;2023-02-28T07:31:32;98601.91;;;-3.14;100.00
72423;BME280;60413;55.658;37.498;2023-02-28T07:33:59;98619.47;;;-3.10;100.00
72423;BME280;60413;55.658;37.498;2023-02-28T07:36:25;98581.66;;;-3.50;100.00
72423;BME280;60413;55.658;37.498;2023-02-28T07:38:51;98528.66;;;-3.86;100.00
72423;BME280;60413;55.658;37.498;2023-02-28T07:41:19;98534.81;;;-3.62;100.00
72423;BME280;60413;55.658;37.498;2023-02-28T07:43:45;98545.91;;;-3.78;100.00
72423;BME280;60413;55.658;37.498;2023-02-28T07:46:14;98558.16;;;-3.47;100.00
72423;BME280;60413;55.658;37.498;2023-02-28T07:48:41;98516.63;;;-3.77;100.00
72423;BME280;60413;55.658;37.498;2023-02-28T07:51:07;98523.19;;;-3.58;100.00
72423;BME280;60413;55.658;37.498;2023-02-28T07:53:33;98565.81;;;-2.98;100.00
72423;BME280;60413;55.658;37.498;2023-02-28T07:56:00;98571.88;;;-2.83;100.00
72423;BME280;60413;55.658;37.498;2023-02-28T07:58:28;98605.53;;;-2.59;100.00
72423;BME280;60413;55.658;37.498;2023-02-28T08:00:55;98556.69;;;-2.69;100.00
72423;BME280;60413;55.658;37.498;2023-02-28T08:03:22;98578.31;;;-2.31;100.00
72423;BME280;60413;55.658;37.498;2023-02-28T08:05:49;98510.13;;;-2.36;100.00
72423;BME280;60413;55.658;37.498;2023-02-28T08:08:16;98536.72;;;-2.36;100.00
72423;BME280;60413;55.658;37.498;2023-02-28T08:10:43;98527.34;;;-2.06;100.00
72423;BME280;60413;55.658;37.498;2023-02-28T08:13:11;98551.75;;;-1.85;100.00
72423;BME280;60413;55.658;37.498;2023-02-28T08:15:37;98579.66;;;-1.57;100.00
72423;BME280;60413;55.658;37.498;2023-02-28T08:18:06;98545.97;;;-1.87;100.00
72423;BME280;60413;55.658;37.498;2023-02-28T08:20:31;98519.25;;;-2.26;100.00
72423;BME280;60413;55.658;37.498;2023-02-28T08:22:58;98542.72;;;-2.35;100.00
72423;BME280;60413;55.658;37.498;2023-02-28T08:25:27;98543.91;;;-2.23;100.00
72423;BME280;60413;55.658;37.498;2023-02-28T08:28:00;98514.19;;;-2.42;100.00
72423;BME280;60413;55.658;37.498;2023-02-28T08:30:26;98484.22;;;-2.51;100.00
72423;BME280;60413;55.658;37.498;2023-02-28T08:32:52;98473.19;;;-2.68;100.00
72423;BME280;60413;55.658;37.498;2023-02-28T08:35:18;98434.16;;;-2.96;100.00
72423;BME280;60413;55.658;37.498;2023-02-28T08:37:44;98398.97;;;-2.89;100.00
72423;BME280;60413;55.658;37.498;2023-02-28T08:40:16;98418.34;;;-2.93;100.00
72423;BME280;60413;55.658;37.498;2023-02-28T08:42:47;98497.00;;;-2.03;100.00
72423;BME280;60413;55.658;37.498;2023-02-28T08:45:27;98462.88;;;-2.14;100.00
72423;BME280;60413;55.658;37.498;2023-02-28T08:48:11;98476.25;;;-1.87;100.00
72423;BME280;60413;55.658;37.498;2023-02-28T08:50:39;98547.28;;;-2.22;100.00
72423;BME280;60413;55.658;37.498;2023-02-28T08:53:06;98509.38;;;-2.45;100.00
72423;BME280;60413;55.658;37.498;2023-02-28T08:55:32;98553.34;;;-2.38;100.00
72423;BME280;60413;55.658;37.498;2023-02-28T08:57:57;98523.28;;;-2.63;100.00
72423;BME280;60413;55.658;37.498;2023-02-28T09:00:24;98476.16;;;-2.88;100.00
72423;BME280;60413;55.658;37.498;2023-02-28T09:02:52;98505.69;;;-2.59;100.00
72423;BME280;60413;55.658;37.498;2023-02-28T09:05:18;98461.00;;;-2.83;100.00
72423;BME280;60413;55.658;37.498;2023-02-28T09:07:46;98490.34;;;-2.84;100.00
72423;BME280;60413;55.658;37.498;2023-02-28T09:10:13;98517.00;;;-2.60;100.00
72423;BME280;60413;55.658;37.498;2023-02-28T09:12:49;98456.56;;;-2.97;100.00
72423;BME280;60413;55.658;37.498;2023-02-28T09:15:18;98502.94;;;-2.89;100.00
72423;BME280;60413;55.658;37.498;2023-02-28T09:17:44;98469.44;;;-2.97;100.00
72423;BME280;60413;55.658;37.498;2023-02-28T09:20:11;98416.06;;;-3.28;100.00
72423;BME280;60413;55.658;37.498;2023-02-28T09:22:39;98478.91;;;-2.89;100.00
72423;BME280;60413;55.658;37.498;2023-02-28T09:25:07;98441.38;;;-2.92;100.00
72423;BME280;60413;55.658;37.498;2023-02-28T09:27:33;98451.69;;;-2.92;100.00
72423;BME280;60413;55.658;37.498;2023-02-28T09:29:59;98463.72;;;-2.76;100.00
72423;BME280;60413;55.658;37.498;2023-02-28T09:32:28;98440.06;;;-2.88;100.00
72423;BME280;60413;55.658;37.498;2023-02-28T09:34:57;98451.94;;;-2.70;100.00
72423;BME280;60413;55.658;37.498;2023-02-28T09:37:25;98496.34;;;-2.52;100.00
72423;BME280;60413;55.658;37.498;2023-02-28T09:39:57;98415.94;;;-2.95;100.00
72423;BME280;60413;55.658;37.498;2023-02-28T09:42:33;98422.75;;;-3.02;100.00
72423;BME280;60413;55.658;37.498;2023-02-28T09:45:22;98422.31;;;-3.14;100.00
72423;BME280;60413;55.658;37.498;2023-02-28T09:47:50;98462.72;;;-2.67;100.00
72423;BME280;60413;55.658;37.498;2023-02-28T09:50:30;98429.19;;;-3.06;100.00
72423;BME280;60413;55.658;37.498;2023-02-28T09:53:05;98444.63;;;-2.98;100.00
72423;BME280;60413;55.658;37.498;2023-02-28T10:05:23;98349.56;;;-3.32;100.00
72423;BME280;60413;55.658;37.498;2023-02-28T10:11:15;98424.81;;;-2.66;100.00
72423;BME280;60413;55.658;37.498;2023-02-28T10:14:02;98412.13;;;-2.76;100.00
72423;BME280;60413;55.658;37.498;2023-02-28T10:22:25;98427.34;;;-2.58;100.00
72423;BME280;60413;55.658;37.498;2023-02-28T10:25:24;98381.22;;;-2.84;100.00
72423;BME280;60413;55.658;37.498;2023-02-28T10:28:23;98329.94;;;-3.02;100.00
72423;BME280;60413;55.658;37.498;2023-02-28T10:30:56;98313.19;;;-3.06;100.00
72423;BME280;60413;55.658;37.498;2023-02-28T10:33:53;98332.00;;;-2.74;100.00
72423;BME280;60413;55.658;37.498;2023-02-28T10:36:27;98355.38;;;-2.76;100.00
72423;BME280;60413;55.658;37.498;2023-02-28T10:42:45;98326.00;;;-2.90;100.00
72423;BME280;60413;55.658;37.498;2023-02-28T10:49:26;98303.97;;;-3.24;100.00
72423;BME280;60413;55.658;37.498;2023-02-28T10:52:00;98335.19;;;-3.19;100.00
72423;BME280;60413;55.658;37.498;2023-02-28T10:54:46;98302.69;;;-3.28;100.00
72423;BME280;60413;55.658;37.498;2023-02-28T10:57:21;98345.59;;;-2.81;100.00
72423;BME280;60413;55.658;37.498;2023-02-28T10:59:53;98380.34;;;-2.45;100.00
72423;BME280;60413;55.658;37.498;2023-02-28T11:02:34;98351.13;;;-2.61;100.00
72423;BME280;60413;55.658;37.498;2023-02-28T11:05:30;98367.16;;;-2.50;100.00
72423;BME280;60413;55.658;37.498;2023-02-28T11:08:15;98366.81;;;-2.47;100.00
72423;BME280;60413;55.658;37.498;2023-02-28T11:10:55;98267.47;;;-3.12;100.00
72423;BME280;60413;55.658;37.498;2023-02-28T11:13:27;98308.03;;;-3.06;100.00
72423;BME280;60413;55.658;37.498;2023-02-28T11:15:59;98324.50;;;-2.84;100.00
72423;BME280;60413;55.658;37.498;2023-02-28T11:18:30;98260.09;;;-3.15;100.00
72423;BME280;60413;55.658;37.498;2023-02-28T11:21:02;98253.44;;;-3.33;100.00
72423;BME280;60413;55.658;37.498;2023-02-28T11:23:36;98289.19;;;-3.07;100.00
72423;BME280;60413;55.658;37.498;2023-02-28T11:26:04;98296.47;;;-3.10;100.00
72423;BME280;60413;55.658;37.498;2023-02-28T11:28:35;98331.22;;;-2.52;100.00
72423;BME280;60413;55.658;37.498;2023-02-28T11:33:53;98256.66;;;-3.08;100.00
72423;BME280;60413;55.658;37.498;2023-02-28T11:36:24;98331.94;;;-2.43;100.00
72423;BME280;60413;55.658;37.498;2023-02-28T11:38:56;98336.41;;;-2.37;100.00
72423;BME280;60413;55.658;37.498;2023-02-28T11:47:09;98289.44;;;-2.93;100.00
72423;BME280;60413;55.658;37.498;2023-02-28T11:49:50;98319.06;;;-2.66;100.00
72423;BME280;60413;55.658;37.498;2023-02-28T11:52:48;98326.56;;;-2.56;100.00
72423;BME280;60413;55.658;37.498;2023-02-28T11:55:42;98305.59;;;-2.76;100.00
72423;BME280;60413;55.658;37.498;2023-02-28T11:58:29;98318.19;;;-2.58;100.00
72423;BME280;60413;55.658;37.498;2023-02-28T12:11:59;98303.16;;;-2.55;100.00
72423;BME280;60413;55.658;37.498;2023-02-28T12:17:22;98309.03;;;-2.61;100.00
72423;BME280;60413;55.658;37.498;2023-02-28T12:25:59;98294.41;;;-2.69;100.00
72423;BME280;60413;55.658;37.498;2023-02-28T12:28:31;98268.75;;;-2.85;100.00
72423;BME280;60413;55.658;37.498;2023-02-28T12:33:34;98212.22;;;-3.10;100.00
72423;BME280;60413;55.658;37.498;2023-02-28T12:36:09;98292.06;;;-2.78;100.00
72423;BME280;60413;55.658;37.498;2023-02-28T12:38:47;98248.53;;;-2.96;100.00
72423;BME280;60413;55.658;37.498;2023-02-28T12:41:22;98205.88;;;-3.22;100.00
72423;BME280;60413;55.658;37.498;2023-02-28T12:43:58;98237.53;;;-2.90;100.00
72423;BME280;60413;55.658;37.498;2023-02-28T12:46:35;98233.44;;;-2.85;100.00
72423;BME280;60413;55.658;37.498;2023-02-28T12:49:25;98216.75;;;-3.12;100.00
72423;BME280;60413;55.658;37.498;2023-02-28T12:51:53;98229.63;;;-2.89;100.00
72423;BME280;60413;55.658;37.498;2023-02-28T13:00:04;98212.28;;;-3.18;100.00
72423;BME280;60413;55.658;37.498;2023-02-28T13:10:54;98196.00;;;-2.95;100.00
72423;BME280;60413;55.658;37.498;2023-02-28T13:13:23;98175.72;;;-2.99;100.00
72423;BME280;60413;55.658;37.498;2023-02-28T13:16:02;98197.97;;;-2.83;100.00
72423;BME280;60413;55.658;37.498;2023-02-28T13:18:39;98212.53;;;-2.90;100.00
72423;BME280;60413;55.658;37.498;2023-02-28T13:21:10;98201.53;;;-2.84;100.00
72423;BME280;60413;55.658;37.498;2023-02-28T13:29:02;98197.25;;;-2.91;100.00
72423;BME280;60413;55.658;37.498;2023-02-28T13:31:31;98200.53;;;-2.83;100.00
72423;BME280;60413;55.658;37.498;2023-02-28T13:34:14;98196.38;;;-2.84;100.00
72423;BME280;60413;55.658;37.498;2023-02-28T13:36:40;98162.38;;;-3.02;100.00
72423;BME280;60413;55.658;37.498;2023-02-28T13:59:22;98183.69;;;-2.70;100.00
72423;BME280;60413;55.658;37.498;2023-02-28T14:07:09;98146.41;;;-2.83;100.00
72423;BME280;60413;55.658;37.498;2023-02-28T14:09:46;98167.47;;;-2.79;100.00
72423;BME280;60413;55.658;37.498;2023-02-28T14:12:52;98180.38;;;-2.79;100.00
72423;BME280;60413;55.658;37.498;2023-02-28T14:18:17;98154.97;;;-2.67;100.00
72423;BME280;60413;55.658;37.498;2023-02-28T14:20:47;98163.25;;;-2.57;100.00
72423;BME280;60413;55.658;37.498;2023-02-28T14:23:32;98164.22;;;-2.58;100.00
72423;BME280;60413;55.658;37.498;2023-02-28T14:29:26;98148.75;;;-2.58;100.00
72423;BME280;60413;55.658;37.498;2023-02-28T14:34:42;98086.19;;;-3.05;100.00
72423;BME280;60413;55.658;37.498;2023-02-28T14:37:19;98135.03;;;-2.58;100.00
72423;BME280;60413;55.658;37.498;2023-02-28T14:39:46;98131.75;;;-2.67;100.00
72423;BME280;60413;55.658;37.498;2023-02-28T14:42:30;98121.97;;;-2.72;100.00
72423;BME280;60413;55.658;37.498;2023-02-28T14:45:04;98120.97;;;-2.56;100.00
72423;BME280;60413;55.658;37.498;2023-02-28T14:47:42;98115.91;;;-2.79;100.00
72423;BME280;60413;55.658;37.498;2023-02-28T14:50:18;98123.28;;;-2.76;100.00
72423;BME280;60413;55.658;37.498;2023-02-28T14:52:46;98085.41;;;-2.90;100.00
72423;BME280;60413;55.658;37.498;2023-02-28T14:55:17;98082.09;;;-2.84;100.00
72423;BME280;60413;55.658;37.498;2023-02-28T14:57:57;98070.81;;;-2.83;100.00
72423;BME280;60413;55.658;37.498;2023-02-28T15:00:51;98070.75;;;-2.75;100.00
72423;BME280;60413;55.658;37.498;2023-02-28T15:03:27;98042.81;;;-3.01;100.00
72423;BME280;60413;55.658;37.498;2023-02-28T15:06:06;98051.97;;;-2.84;100.00
72423;BME280;60413;55.658;37.498;2023-02-28T15:08:38;98092.69;;;-2.64;100.00
72423;BME280;60413;55.658;37.498;2023-02-28T15:11:13;98079.44;;;-2.61;100.00
72423;BME280;60413;55.658;37.498;2023-02-28T15:13:46;98123.09;;;-2.30;100.00
72423;BME280;60413;55.658;37.498;2023-02-28T15:16:28;98049.94;;;-2.73;100.00
72423;BME280;60413;55.658;37.498;2023-02-28T15:19:02;98056.41;;;-2.77;100.00
72423;BME280;60413;55.658;37.498;2023-02-28T15:21:37;98077.59;;;-2.67;100.00
72423;BME280;60413;55.658;37.498;2023-02-28T15:24:27;98107.34;;;-2.35;100.00
72423;BME280;60413;55.658;37.498;2023-02-28T15:27:04;98053.81;;;-2.77;100.00
72423;BME280;60413;55.658;37.498;2023-02-28T15:29:44;98062.47;;;-2.70;100.00
72423;BME280;60413;55.658;37.498;2023-02-28T15:32:37;98027.06;;;-2.76;100.00
72423;BME280;60413;55.658;37.498;2023-02-28T15:38:01;98055.78;;;-2.65;100.00
72423;BME280;60413;55.658;37.498;2023-02-28T15:40:50;98077.78;;;-2.32;100.00
72423;BME280;60413;55.658;37.498;2023-02-28T15:43:26;98022.81;;;-2.84;100.00
72423;BME280;60413;55.658;37.498;2023-02-28T15:46:00;98045.34;;;-2.42;100.00
72423;BME280;60413;55.658;37.498;2023-02-28T15:48:30;98050.88;;;-2.59;100.00